Time;durP1;ratioP1;P1;durP2;ratioP2;P2;SDS_P1;SDS_P2;PMS_P1;PMS_P2;Temp;Humidity;BMP_temperature;BMP_pressure;BME280_temperature;BME280_humidity;BME280_pressure;Samples;Min_cycle;Max_cycle;Signal;HPM_P1;HPM_P2
2022/05/29 00:02:10;;;;;;;4.60;1.45;;;;;;;12.18;54.61;101359.09;4991548;28;20057;-66
2022/05/29 00:04:41;;;;;;;6.20;1.48;;;;;;;12.26;54.17;101352.00;4995456;28;20485;-63
2022/05/29 00:07:16;;;;;;;7.28;1.63;;;;;;;12.60;53.48;101346.00;4985888;28;20054;-63
2022/05/29 00:09:47;;;;;;;8.82;1.48;;;;;;;12.33;53.99;101347.69;4994920;28;20045;-63
2022/05/29 00:12:16;;;;;;;6.78;1.52;;;;;;;12.28;54.10;101356.09;4993328;28;20054;-63
2022/05/29 00:14:44;;;;;;;4.50;1.40;;;;;;;12.34;54.11;101351.28;4995161;28;20058;-63
2022/05/29 00:17:11;;;;;;;6.50;1.30;;;;;;;11.95;55.32;101338.03;4994918;28;20050;-64
2022/05/29 00:19:39;;;;;;;6.13;1.20;;;;;;;11.94;55.46;101338.34;4983394;28;20055;-64
2022/05/29 00:22:07;;;;;;;3.72;1.27;;;;;;;12.00;55.28;101342.63;4982560;28;20065;-65
2022/05/29 00:24:35;;;;;;;7.13;1.60;;;;;;;12.28;54.39;101341.47;4993648;28;20058;-63
2022/05/29 00:27:03;;;;;;;6.03;1.70;;;;;;;12.40;54.24;101337.03;4994293;28;20062;-64
2022/05/29 00:29:30;;;;;;;6.30;1.33;;;;;;;12.32;54.36;101345.25;4993489;28;20048;-64
2022/05/29 00:31:59;;;;;;;5.60;1.40;;;;;;;12.39;54.28;101340.94;4995086;28;20524;-64
2022/05/29 00:34:27;;;;;;;7.05;1.73;;;;;;;12.13;54.69;101328.78;4993256;28;20070;-63
2022/05/29 00:36:54;;;;;;;5.93;1.58;;;;;;;12.17;55.16;101334.50;4994530;28;20450;-64
2022/05/29 00:39:22;;;;;;;5.63;1.55;;;;;;;12.26;54.51;101339.00;5009644;28;20062;-64
2022/05/29 00:41:49;;;;;;;6.82;1.45;;;;;;;12.13;55.01;101330.75;4994764;28;20069;-63
2022/05/29 00:44:18;;;;;;;3.17;0.88;;;;;;;12.34;54.56;101320.91;4993750;28;20053;-63
2022/05/29 00:46:48;;;;;;;9.70;1.60;;;;;;;12.56;53.90;101331.97;4994826;28;20051;-62
2022/05/29 00:49:17;;;;;;;8.98;1.75;;;;;;;12.24;54.51;101330.22;5007304;28;20486;-63
2022/05/29 00:51:51;;;;;;;8.63;1.40;;;;;;;12.14;55.34;101335.13;5011359;28;20046;-63
2022/05/29 00:54:20;;;;;;;8.15;1.50;;;;;;;12.16;55.22;101333.72;4996821;28;20058;-64
2022/05/29 00:56:48;;;;;;;6.22;1.13;;;;;;;11.85;56.10;101332.72;5013164;28;20057;-62
2022/05/29 00:59:19;;;;;;;5.38;1.20;;;;;;;11.75;56.52;101334.88;4996457;28;20050;-63
2022/05/29 01:01:46;;;;;;;6.40;1.30;;;;;;;12.03;56.00;101331.78;4997130;28;20073;-63
2022/05/29 01:04:15;;;;;;;3.67;1.13;;;;;;;12.02;55.94;101332.91;4996913;28;20046;-63
2022/05/29 01:06:42;;;;;;;7.22;1.25;;;;;;;12.02;55.98;101335.69;4995788;28;20413;-63
2022/05/29 01:09:11;;;;;;;3.53;1.08;;;;;;;11.94;56.18;101333.63;4990258;28;20050;-63
2022/05/29 01:11:43;;;;;;;6.10;1.30;;;;;;;11.85;56.49;101329.13;4997972;28;20046;-63
2022/05/29 01:14:35;;;;;;;5.85;1.38;;;;;;;11.46;58.06;101324.06;4995395;28;20525;-64
2022/05/29 01:17:21;;;;;;;5.93;1.65;;;;;;;11.42;58.38;101330.50;4996855;28;20050;-63
2022/05/29 01:20:16;;;;;;;4.65;1.48;;;;;;;11.32;58.58;101325.97;4971894;28;20054;-64
2022/05/29 01:23:18;;;;;;;7.78;1.20;;;;;;;11.38;58.97;101313.75;4978224;28;20596;-64
2022/05/29 01:26:24;;;;;;;5.10;1.52;;;;;;;11.30;59.23;101320.78;4937100;28;20070;-63
2022/05/29 01:28:56;;;;;;;4.95;1.20;;;;;;;11.34;59.44;101323.75;4990129;28;20405;-63
2022/05/29 01:31:48;;;;;;;12.57;1.58;;;;;;;11.52;58.99;101308.25;4985142;28;20051;-63
2022/05/29 01:34:31;;;;;;;8.77;1.65;;;;;;;11.12;60.37;101309.81;4976870;28;20070;-65
2022/05/29 01:37:07;;;;;;;7.05;1.30;;;;;;;11.22;60.09;101304.09;4977612;28;20042;-64
2022/05/29 01:39:45;;;;;;;5.68;1.40;;;;;;;11.29;60.12;101307.28;4977565;28;20054;-63
2022/05/29 01:42:22;;;;;;;8.40;1.13;;;;;;;11.02;60.94;101298.94;4997362;28;20501;-63
2022/05/29 01:45:24;;;;;;;7.22;1.45;;;;;;;11.26;60.56;101296.88;4995494;28;20042;-63
2022/05/29 01:48:18;;;;;;;6.28;1.35;;;;;;;11.48;59.70;101294.25;5012073;28;20065;-62
2022/05/29 01:50:51;;;;;;;7.65;1.80;;;;;;;11.65;59.62;101296.41;4961996;28;20062;-64
2022/05/29 01:53:24;;;;;;;6.78;1.60;;;;;;;11.83;59.03;101289.97;5011233;28;20497;-63
2022/05/29 01:55:53;;;;;;;5.15;1.60;;;;;;;11.89;58.83;101303.34;4941649;29;20082;-63
2022/05/29 01:58:29;;;;;;;9.75;1.92;;;;;;;11.31;60.88;101297.56;4973401;28;20051;-63
2022/05/29 02:00:59;;;;;;;8.70;1.50;;;;;;;11.54;60.19;101295.75;4966634;28;20046;-63
2022/05/29 02:03:34;;;;;;;7.18;1.42;;;;;;;11.00;61.98;101306.72;4993906;28;20069;-63
2022/05/29 02:06:14;;;;;;;7.82;1.38;;;;;;;10.86;62.68;101297.59;4978456;28;20054;-63
2022/05/29 02:08:49;;;;;;;8.43;1.60;;;;;;;10.84;63.07;101297.06;4994451;28;20055;-63
2022/05/29 02:11:21;;;;;;;7.30;1.83;;;;;;;10.86;63.11;101298.38;4976055;28;20050;-63
2022/05/29 02:14:04;;;;;;;8.55;1.55;;;;;;;10.84;63.18;101299.81;4977478;28;20059;-63
2022/05/29 02:16:45;;;;;;;10.20;1.98;;;;;;;10.92;63.03;101299.13;4960269;28;20062;-63
2022/05/29 02:19:35;;;;;;;7.00;1.90;;;;;;;11.27;62.22;101291.06;4974600;28;20411;-63
2022/05/29 02:22:06;;;;;;;12.88;1.80;;;;;;;11.01;62.84;101295.38;4995277;28;20047;-62
2022/05/29 02:24:39;;;;;;;8.20;1.63;;;;;;;10.95;63.17;101301.25;5011052;28;20062;-64
2022/05/29 02:27:19;;;;;;;5.38;1.40;;;;;;;11.12;62.76;101294.06;4959891;28;20414;-63
2022/05/29 02:29:47;;;;;;;6.47;1.42;;;;;;;10.98;62.97;101276.66;4975771;28;20062;-63
2022/05/29 02:32:32;;;;;;;9.68;1.92;;;;;;;10.85;63.63;101282.16;4999255;28;20062;-63
2022/05/29 02:35:06;;;;;;;6.05;1.52;;;;;;;11.12;63.36;101285.00;4979110;28;20065;-62
2022/05/29 02:37:46;;;;;;;12.90;1.83;;;;;;;10.97;63.55;101279.72;4977903;28;20069;-63
2022/05/29 02:40:19;;;;;;;;;;;;;;;10.95;63.81;101276.47;4996968;28;20768;-63
2022/05/29 02:43:09;;;;;;;9.00;1.73;;;;;;;10.79;64.21;101275.09;4995372;28;19933;-64
2022/05/29 02:45:43;;;;;;;9.10;1.65;;;;;;;11.05;63.41;101277.09;4957503;29;20062;-63
2022/05/29 02:48:14;;;;;;;8.82;1.77;;;;;;;10.96;63.80;101273.44;4957460;29;20058;-64
2022/05/29 02:51:04;;;;;;;13.18;1.90;;;;;;;10.80;64.37;101268.47;4972397;28;20062;-63
2022/05/29 02:53:33;;;;;;;6.67;1.73;;;;;;;10.84;64.63;101275.00;4962225;28;20054;-64
2022/05/29 02:56:04;;;;;;;7.03;1.58;;;;;;;10.93;64.58;101274.00;4995774;28;20285;-64
2022/05/29 02:58:32;;;;;;;7.55;1.55;;;;;;;10.62;65.39;101272.06;4978927;28;20517;-64
2022/05/29 03:01:06;;;;;;;5.75;1.45;;;;;;;10.24;66.84;101271.28;4995036;28;20050;-64
2022/05/29 03:04:03;;;;;;;8.98;1.90;;;;;;;10.26;66.96;101277.31;4995921;28;20065;-62
2022/05/29 03:06:40;;;;;;;7.53;1.77;;;;;;;10.50;66.52;101261.50;4985829;28;20131;-62
2022/05/29 03:09:22;;;;;;;13.30;2.38;;;;;;;10.37;66.51;101264.22;4991082;28;20051;-63
2022/05/29 03:11:51;;;;;;;7.22;1.48;;;;;;;10.42;66.66;101262.19;4974523;28;20074;-63
2022/05/29 03:14:43;;;;;;;8.80;1.60;;;;;;;10.37;66.75;101261.47;4958746;28;20050;-64
2022/05/29 03:17:40;;;;;;;6.93;1.50;;;;;;;10.65;66.17;101261.25;4993423;28;20501;-64
2022/05/29 03:20:20;;;;;;;10.45;1.73;;;;;;;10.45;66.42;101256.09;4954431;28;20058;-63
2022/05/29 03:22:57;;;;;;;6.57;1.80;;;;;;;10.43;66.73;101269.34;4976080;28;20047;-63
2022/05/29 03:25:24;;;;;;;10.32;2.13;;;;;;;10.23;67.61;101268.81;4959281;28;20449;-63
2022/05/29 03:27:53;;;;;;;10.18;2.28;;;;;;;10.26;67.54;101263.53;4976354;28;20050;-63
2022/05/29 03:30:23;;;;;;;13.48;2.53;;;;;;;10.16;68.17;101267.25;4968268;28;20050;-64
2022/05/29 03:32:55;;;;;;;;;;;;;;;10.34;67.71;101262.84;4992915;28;20058;-63
2022/05/29 03:35:31;;;;;;;8.43;2.00;;;;;;;10.37;67.72;101254.03;4976441;28;19929;-63
2022/05/29 03:38:01;;;;;;;9.02;2.53;;;;;;;10.23;67.72;101250.38;4993716;28;20061;-64
2022/05/29 03:40:30;;;;;;;7.32;1.80;;;;;;;10.13;68.21;101250.50;4994311;28;20598;-63
2022/05/29 03:42:58;;;;;;;6.50;1.80;;;;;;;10.38;67.91;101244.63;5009958;28;20143;-64
2022/05/29 03:45:26;;;;;;;9.07;2.08;;;;;;;10.23;67.90;101251.19;5009105;28;20058;-63
2022/05/29 03:47:55;;;;;;;8.30;1.88;;;;;;;10.23;68.12;101250.38;4978217;28;20046;-62
2022/05/29 03:50:23;;;;;;;10.23;2.08;;;;;;;9.71;69.78;101264.28;4995606;28;20054;-63
2022/05/29 03:52:51;;;;;;;11.68;1.88;;;;;;;9.93;69.64;101256.28;4995083;28;20050;-63
2022/05/29 03:55:26;;;;;;;11.57;2.00;;;;;;;10.04;69.11;101263.28;4995311;28;20077;-63
2022/05/29 03:57:54;;;;;;;9.18;1.70;;;;;;;10.27;68.35;101259.66;5009295;28;20061;-66
2022/05/29 04:00:23;;;;;;;10.07;2.63;;;;;;;10.39;67.99;101253.72;4995298;28;20112;-62
2022/05/29 04:02:50;;;;;;;6.20;1.88;;;;;;;10.42;67.59;101259.44;5010699;28;20058;-62
2022/05/29 04:05:20;;;;;;;10.95;2.55;;;;;;;10.14;68.28;101253.00;4993769;28;20054;-63
2022/05/29 04:13:27;;;;;;;11.10;2.10;;;;;;;10.55;67.20;101252.38;5007778;28;20046;-63
2022/05/29 04:15:54;;;;;;;11.30;2.60;;;;;;;10.37;67.98;101251.28;4995458;28;20050;-64
2022/05/29 04:18:22;;;;;;;7.72;1.95;;;;;;;10.21;68.42;101263.63;4993920;28;20058;-63
2022/05/29 04:20:51;;;;;;;8.23;1.98;;;;;;;10.03;68.98;101259.72;4983543;28;20047;-63
2022/05/29 04:23:19;;;;;;;11.10;2.08;;;;;;;10.19;68.76;101261.16;4995032;28;20055;-62
2022/05/29 04:25:47;;;;;;;11.63;2.20;;;;;;;10.34;67.98;101262.06;4995653;28;20421;-63
2022/05/29 04:28:15;;;;;;;10.00;1.90;;;;;;;10.33;67.72;101254.91;4998992;28;20050;-63
2022/05/29 04:30:43;;;;;;;7.90;1.80;;;;;;;10.34;68.22;101248.31;4996468;28;20054;-62
2022/05/29 04:33:10;;;;;;;12.40;2.65;;;;;;;10.34;67.88;101251.06;4997511;28;20049;-71
2022/05/29 04:35:40;;;;;;;8.07;2.60;;;;;;;10.15;68.31;101251.03;4998896;28;20065;-70
2022/05/29 04:38:09;;;;;;;10.32;2.45;;;;;;;10.22;68.23;101245.19;4998536;28;20058;-70
2022/05/29 04:40:38;;;;;;;13.95;2.55;;;;;;;10.02;69.34;101258.06;4997718;28;20057;-65
2022/05/29 04:43:06;;;;;;;10.20;2.30;;;;;;;9.93;69.86;101259.03;4997265;28;20477;-64
2022/05/29 04:45:33;;;;;;;8.70;2.17;;;;;;;10.21;69.04;101247.09;4997306;28;20648;-63
2022/05/29 04:48:00;;;;;;;8.10;1.70;;;;;;;10.34;68.53;101251.84;4998661;28;20059;-64
2022/05/29 04:50:28;;;;;;;7.80;1.88;;;;;;;10.18;68.59;101255.97;4998583;28;20387;-64
2022/05/29 04:52:55;;;;;;;11.85;2.40;;;;;;;10.35;68.63;101244.41;4995803;28;20038;-64
2022/05/29 04:55:22;;;;;;;9.80;2.15;;;;;;;10.52;67.90;101244.69;4980880;28;20050;-63
2022/05/29 04:57:50;;;;;;;12.32;2.63;;;;;;;10.28;68.71;101250.31;4980523;28;20383;-63
2022/05/29 05:00:17;;;;;;;9.07;2.10;;;;;;;10.43;68.00;101240.97;4997029;28;20058;-64
2022/05/29 05:02:45;;;;;;;8.20;2.33;;;;;;;10.68;67.45;101251.59;5013397;28;20493;-63
2022/05/29 05:05:13;;;;;;;11.27;2.30;;;;;;;10.45;67.81;101245.06;4996783;28;20054;-64
2022/05/29 05:07:41;;;;;;;12.32;2.75;;;;;;;10.15;69.40;101251.88;4998303;28;20062;-63
2022/05/29 05:10:11;;;;;;;5.45;2.00;;;;;;;10.12;69.02;101246.13;4998299;28;20057;-64
2022/05/29 05:12:39;;;;;;;9.18;2.40;;;;;;;10.42;68.73;101253.94;4998078;28;20058;-64
2022/05/29 05:15:07;;;;;;;8.07;2.63;;;;;;;10.48;68.52;101247.22;4996568;28;20050;-64
2022/05/29 05:17:35;;;;;;;8.60;2.63;;;;;;;10.55;67.84;101247.66;4995607;28;20050;-63
2022/05/29 05:20:06;;;;;;;10.98;2.08;;;;;;;10.93;66.92;101257.47;4982880;28;20066;-66
2022/05/29 05:22:36;;;;;;;9.18;2.60;;;;;;;10.52;67.70;101245.50;4978728;28;20043;-63
2022/05/29 05:25:04;;;;;;;11.07;2.03;;;;;;;10.60;67.65;101250.31;4978451;28;20047;-64
2022/05/29 05:27:31;;;;;;;10.82;2.22;;;;;;;10.24;69.52;101249.25;4978486;28;20051;-64
2022/05/29 05:29:59;;;;;;;7.35;2.22;;;;;;;10.48;68.37;101244.47;4996827;28;20046;-63
2022/05/29 05:32:26;;;;;;;8.02;2.42;;;;;;;10.22;69.09;101251.47;4995714;28;20046;-64
2022/05/29 05:34:53;;;;;;;13.05;2.78;;;;;;;10.38;68.74;101252.91;4997791;28;20047;-65
2022/05/29 05:37:21;;;;;;;8.85;2.33;;;;;;;10.74;67.61;101253.94;4995628;28;20430;-63
2022/05/29 05:39:51;;;;;;;14.10;2.70;;;;;;;10.32;68.27;101250.53;4997854;28;20050;-63
2022/05/29 05:42:18;;;;;;;13.70;2.75;;;;;;;10.54;67.65;101257.06;4997737;28;20047;-63
2022/05/29 05:44:46;;;;;;;9.05;2.10;;;;;;;10.18;68.20;101258.72;4996136;28;20054;-62
2022/05/29 05:47:19;;;;;;;8.93;1.85;;;;;;;10.23;68.61;101242.91;4997565;28;20058;-63
2022/05/29 05:49:46;;;;;;;13.52;2.78;;;;;;;10.45;67.91;101255.25;5012304;28;20545;-64
2022/05/29 05:52:14;;;;;;;10.20;2.58;;;;;;;10.62;67.34;101245.34;4997345;28;20054;-64
2022/05/29 05:54:42;;;;;;;8.93;2.60;;;;;;;10.62;66.86;101258.28;4978705;28;20069;-63
2022/05/29 05:57:10;;;;;;;8.75;2.53;;;;;;;10.91;66.05;101253.41;4958792;29;20483;-63
2022/05/29 05:59:39;;;;;;;9.68;2.13;;;;;;;10.95;65.67;101255.22;4941029;29;20059;-64
2022/05/29 06:02:09;;;;;;;9.43;2.38;;;;;;;10.92;65.61;101249.50;4958539;29;20050;-64
2022/05/29 06:04:38;;;;;;;10.18;2.17;;;;;;;10.84;65.54;101255.72;4956913;29;20066;-63
2022/05/29 06:07:06;;;;;;;12.30;2.63;;;;;;;10.56;66.41;101248.47;4978201;28;20047;-63
2022/05/29 06:09:34;;;;;;;12.65;2.38;;;;;;;10.87;66.01;101247.69;4997166;28;20054;-63
2022/05/29 06:12:03;;;;;;;7.35;1.85;;;;;;;10.99;65.02;101250.75;4995792;28;20050;-62
2022/05/29 06:14:30;;;;;;;9.75;2.20;;;;;;;10.66;65.61;101262.91;4996984;28;20065;-63
2022/05/29 06:16:58;;;;;;;7.50;1.85;;;;;;;10.65;65.98;101241.97;4994187;28;20079;-63
2022/05/29 06:19:26;;;;;;;12.18;2.60;;;;;;;10.87;65.59;101233.91;4978950;28;20057;-63
2022/05/29 06:21:54;;;;;;;10.27;2.03;;;;;;;10.95;64.93;101235.13;4996749;28;20050;-63
2022/05/29 06:24:21;;;;;;;13.25;2.28;;;;;;;10.80;65.33;101246.41;4979055;28;20050;-63
2022/05/29 06:26:49;;;;;;;9.93;1.63;;;;;;;10.77;65.13;101230.50;4996934;28;20062;-64
2022/05/29 06:29:16;;;;;;;10.65;2.10;;;;;;;11.00;64.89;101235.84;4994499;28;20065;-63
2022/05/29 06:31:44;;;;;;;9.70;1.90;;;;;;;10.76;64.60;101235.19;4996583;28;20069;-63
2022/05/29 06:34:11;;;;;;;13.40;2.58;;;;;;;10.83;64.73;101232.84;4996628;28;20054;-63
2022/05/29 06:36:40;;;;;;;8.02;1.70;;;;;;;11.32;63.61;101232.22;4977812;28;20061;-70
2022/05/29 06:39:07;;;;;;;7.75;2.03;;;;;;;11.26;62.86;101239.75;4978894;28;20046;-63
2022/05/29 06:41:39;;;;;;;12.23;2.10;;;;;;;11.41;62.38;101244.16;4976566;28;20065;-63
2022/05/29 06:44:06;;;;;;;8.98;1.77;;;;;;;11.50;61.66;101236.00;4978489;28;20051;-62
2022/05/29 06:46:35;;;;;;;14.70;2.13;;;;;;;11.21;62.37;101245.38;4994743;28;20070;-63
2022/05/29 06:49:02;;;;;;;12.00;1.75;;;;;;;11.24;62.35;101230.97;4995525;28;20054;-66
2022/05/29 06:51:29;;;;;;;7.28;1.75;;;;;;;11.39;61.82;101238.13;4992474;28;20055;-64
2022/05/29 06:53:57;;;;;;;7.65;1.60;;;;;;;11.33;61.79;101236.63;4996281;28;20054;-61
2022/05/29 06:56:24;;;;;;;7.68;2.08;;;;;;;11.42;60.91;101240.28;4995011;28;20065;-63
2022/05/29 06:58:54;;;;;;;20.02;2.00;;;;;;;11.57;60.83;101236.41;4996467;28;20050;-64
2022/05/29 07:07:01;;;;;;;9.05;1.75;;;;;;;11.57;60.37;101236.41;4996283;28;20054;-63
2022/05/29 07:09:32;;;;;;;8.45;1.85;;;;;;;11.64;60.02;101236.81;4994213;28;20076;-64
2022/05/29 07:12:04;;;;;;;6.35;1.67;;;;;;;11.67;59.06;101238.97;4993389;28;20058;-63
2022/05/29 07:14:35;;;;;;;8.73;1.50;;;;;;;11.64;58.89;101234.03;4994549;28;20054;-62
2022/05/29 07:17:02;;;;;;;11.32;1.55;;;;;;;11.67;58.16;101237.03;4995901;28;20058;-62
2022/05/29 07:19:30;;;;;;;8.10;1.58;;;;;;;11.60;58.79;101233.84;4996784;28;20062;-64
2022/05/29 07:21:58;;;;;;;12.75;1.60;;;;;;;11.98;57.95;101234.44;4959020;28;20066;-64
2022/05/29 07:24:26;;;;;;;8.80;1.27;;;;;;;12.17;56.94;101229.56;4994355;28;20050;-64
2022/05/29 07:26:54;;;;;;;7.90;1.73;;;;;;;12.45;56.61;101231.09;4996087;28;20046;-64
2022/05/29 07:29:22;;;;;;;5.60;1.25;;;;;;;12.71;54.81;101226.59;4995677;28;20613;-64
2022/05/29 07:31:51;;;;;;;8.20;1.58;;;;;;;12.83;53.98;101226.81;4994834;28;20050;-64
2022/05/29 07:34:18;;;;;;;15.98;2.20;;;;;;;12.58;52.86;101227.47;4992708;28;20097;-64
2022/05/29 07:36:46;;;;;;;6.93;1.52;;;;;;;12.26;53.04;101230.47;4995888;28;20429;-63
2022/05/29 07:39:14;;;;;;;11.48;1.63;;;;;;;12.53;53.04;101222.09;4994803;28;20085;-64
2022/05/29 07:44:28;;;;;;;8.00;1.60;;;;;;;12.93;50.88;101226.56;4994807;28;20057;-64
2022/05/29 07:46:56;;;;;;;6.05;1.25;;;;;;;13.02;49.01;101223.88;4994281;28;20062;-64
2022/05/29 07:49:23;;;;;;;5.57;1.30;;;;;;;13.15;49.12;101221.03;5010374;28;20673;-63
2022/05/29 07:51:51;;;;;;;7.65;1.30;;;;;;;13.10;48.77;101223.09;4995610;28;20057;-64
2022/05/29 07:54:25;;;;;;;7.22;1.77;;;;;;;13.26;49.05;101216.03;4995258;28;20055;-63
2022/05/29 07:56:58;;;;;;;8.55;1.27;;;;;;;13.40;48.40;101223.09;4993159;28;20050;-64
2022/05/29 07:59:26;;;;;;;7.03;1.58;;;;;;;13.49;48.22;101215.63;4995351;28;20080;-63
2022/05/29 08:01:53;;;;;;;7.18;1.77;;;;;;;13.70;48.08;101226.09;4998111;28;20055;-63
2022/05/29 08:04:21;;;;;;;3.78;1.02;;;;;;;13.82;44.83;101215.22;5014349;28;20631;-64
2022/05/29 08:06:49;;;;;;;6.28;1.50;;;;;;;13.46;45.32;101219.03;4996342;28;20055;-64
2022/05/29 08:09:16;;;;;;;7.13;1.30;;;;;;;13.65;45.14;101210.44;4995855;28;20062;-64
2022/05/29 08:11:44;;;;;;;7.00;1.20;;;;;;;14.15;44.69;101216.41;4984198;28;20053;-63
2022/05/29 08:14:11;;;;;;;7.93;1.55;;;;;;;13.98;43.81;101203.34;4997322;28;20050;-64
2022/05/29 08:16:39;;;;;;;4.75;1.00;;;;;;;13.75;43.46;101217.66;4997921;28;20061;-64
2022/05/29 08:19:07;;;;;;;7.43;1.10;;;;;;;13.12;44.42;101204.25;4989840;28;20066;-63
2022/05/29 08:21:35;;;;;;;5.95;1.20;;;;;;;13.19;45.50;101205.44;4979515;28;20043;-64
2022/05/29 08:32:48;;;;;;;6.07;1.33;;;;;;;14.20;44.93;101192.13;4998526;28;20065;-64
2022/05/29 08:35:20;;;;;;;7.05;1.73;;;;;;;14.00;45.52;101192.75;4995649;28;20433;-63
2022/05/29 08:37:50;;;;;;;9.15;1.55;;;;;;;14.15;45.13;101203.38;4979247;28;20055;-64
2022/05/29 08:40:18;;;;;;;8.32;1.20;;;;;;;13.89;44.10;101208.09;4977817;28;20058;-63
2022/05/29 08:42:45;;;;;;;5.38;1.20;;;;;;;13.60;44.89;101195.97;4961973;28;20066;-65
2022/05/29 08:45:15;;;;;;;8.18;1.17;;;;;;;13.61;44.80;101186.50;5007161;28;20057;-65
2022/05/29 08:47:46;;;;;;;5.90;1.08;;;;;;;13.78;44.79;101189.31;4998834;28;20050;-63
2022/05/29 08:50:47;;;;;;;7.40;1.33;;;;;;;13.71;45.47;101184.25;4998510;28;20062;-63
2022/05/29 08:53:33;;;;;;;9.05;1.60;;;;;;;13.72;45.71;101190.63;4960225;28;20078;-63
2022/05/29 08:56:32;;;;;;;5.80;1.27;;;;;;;13.64;45.85;101188.63;4994270;28;20486;-65
2022/05/29 08:59:21;;;;;;;5.25;1.10;;;;;;;13.79;46.08;101171.56;4982614;28;20065;-70
2022/05/29 09:01:55;;;;;;;6.65;1.58;;;;;;;13.96;45.19;101188.22;4998217;28;20490;-64
2022/05/29 09:04:30;;;;;;;4.95;1.00;;;;;;;13.85;45.14;101184.09;4997189;28;20050;-66
2022/05/29 09:07:00;;;;;;;5.18;1.10;;;;;;;13.85;45.49;101178.56;4998282;28;20129;-71
2022/05/29 09:09:41;;;;;;;6.85;1.75;;;;;;;13.74;44.92;101178.06;4996441;28;20054;-72
2022/05/29 09:12:15;;;;;;;4.95;1.10;;;;;;;13.67;44.85;101176.94;4979726;28;20058;-71
2022/05/29 09:14:55;;;;;;;12.80;5.90;;;;;;;13.45;46.09;101180.63;4980801;28;20065;-72
2022/05/29 09:17:22;;;;;;;5.60;1.15;;;;;;;13.55;45.47;101169.25;5013142;28;20070;-72
2022/05/29 09:20:06;;;;;;;7.70;1.38;;;;;;;13.94;43.93;101171.09;4979063;28;20526;-70
2022/05/29 09:22:35;;;;;;;5.47;1.10;;;;;;;13.50;42.62;101167.44;4957667;29;20047;-71
2022/05/29 09:25:09;;;;;;;5.90;1.20;;;;;;;13.54;42.76;101171.22;4957904;29;20074;-71
2022/05/29 09:27:40;;;;;;;3.60;1.20;;;;;;;13.58;42.38;101152.81;4959447;29;20063;-71
2022/05/29 09:30:08;;;;;;;4.50;1.10;;;;;;;13.93;41.97;101144.56;4960734;28;20051;-71
2022/05/29 09:32:43;;;;;;;3.80;0.98;;;;;;;13.90;40.85;101148.78;4959230;29;20051;-71
2022/05/29 09:35:47;;;;;;;4.80;1.40;;;;;;;13.73;41.82;101154.31;4973809;28;20048;-64
2022/05/29 09:38:25;;;;;;;5.15;1.05;;;;;;;13.62;41.83;101150.19;4958863;29;20063;-65
2022/05/29 09:41:02;;;;;;;5.65;0.82;;;;;;;13.93;42.00;101137.03;4973357;28;20059;-63
2022/05/29 09:43:29;;;;;;;6.32;1.33;;;;;;;14.32;41.80;101141.63;4984267;28;20046;-63
2022/05/29 09:46:18;;;;;;;6.25;2.03;;;;;;;14.43;42.02;101140.97;4996130;28;20081;-64
2022/05/29 09:51:51;;;;;;;8.75;1.83;;;;;;;14.31;42.37;101142.78;4995283;28;20046;-64
2022/05/29 09:54:43;;;;;;;4.35;1.00;;;;;;;14.20;42.24;101145.03;4997097;28;20510;-65
2022/05/29 09:57:56;;;;;;;5.00;1.33;;;;;;;14.30;42.22;101127.28;4995752;28;20050;-72
2022/05/29 10:00:36;;;;;;;5.82;1.10;;;;;;;14.47;42.49;101127.25;4939832;29;20058;-70
2022/05/29 10:03:08;;;;;;;3.78;0.80;;;;;;;14.40;42.09;101115.88;4961300;28;20057;-70
2022/05/29 10:05:40;;;;;;;4.85;1.13;;;;;;;13.95;42.21;101132.00;4994880;28;20437;-71
2022/05/29 10:08:44;;;;;;;3.22;0.90;;;;;;;13.70;41.59;101134.75;4996945;28;20050;-70
2022/05/29 10:11:32;;;;;;;6.03;1.65;;;;;;;14.02;41.51;101132.31;4955641;29;20609;-71
2022/05/29 10:14:17;;;;;;;5.15;1.20;;;;;;;13.92;41.54;101134.59;4991343;28;20065;-63
2022/05/29 10:16:44;;;;;;;4.20;1.20;;;;;;;14.25;41.32;101121.88;5010220;28;20049;-63
2022/05/29 10:19:16;;;;;;;5.15;1.20;;;;;;;14.26;41.26;101123.53;4984442;28;20058;-64
2022/05/29 10:21:48;;;;;;;5.65;1.10;;;;;;;14.15;40.99;101123.03;4958263;28;20058;-70
2022/05/29 10:24:37;;;;;;;4.78;1.30;;;;;;;14.24;41.50;101128.56;4961442;28;21730;-70
2022/05/29 10:27:11;;;;;;;8.27;1.38;;;;;;;14.10;42.17;101116.84;4995681;28;20521;-70
2022/05/29 10:29:40;;;;;;;5.15;1.73;;;;;;;14.37;42.44;101122.03;5011578;28;20062;-72
2022/05/29 10:32:10;;;;;;;5.13;1.13;;;;;;;13.98;42.86;101119.47;4996621;28;20054;-71
2022/05/29 10:34:40;;;;;;;5.90;1.40;;;;;;;14.10;43.13;101114.91;5011731;28;20050;-70
2022/05/29 10:37:29;;;;;;;4.95;1.30;;;;;;;14.23;42.46;101116.66;4995576;28;20069;-71
2022/05/29 10:40:11;;;;;;;5.22;1.10;;;;;;;14.30;42.04;101117.00;4995501;28;20057;-72
2022/05/29 10:42:44;;;;;;;4.82;1.42;;;;;;;14.26;41.46;101109.69;4996409;28;20442;-70
2022/05/29 10:45:24;;;;;;;4.63;1.65;;;;;;;14.43;41.11;101106.88;4994893;28;20043;-71
2022/05/29 10:47:57;;;;;;;8.00;1.55;;;;;;;14.48;40.69;101098.38;4959897;28;20050;-64
2022/05/29 10:50:34;;;;;;;6.97;1.67;;;;;;;14.82;40.66;101094.69;4975575;28;20171;-64
2022/05/29 10:53:23;;;;;;;6.40;1.50;;;;;;;14.96;40.54;101101.63;4976227;28;20062;-63
2022/05/29 10:56:21;;;;;;;12.57;7.83;;;;;;;14.81;40.65;101090.28;4980133;28;20100;-70
2022/05/29 10:59:19;;;;;;;6.93;1.70;;;;;;;14.83;40.72;101082.44;4994298;28;20328;-70
2022/05/29 11:05:06;;;;;;;6.65;1.15;;;;;;;14.66;38.36;101080.56;4995132;28;20055;-70
2022/05/29 11:08:05;;;;;;;5.32;1.30;;;;;;;14.59;37.86;101088.59;4994498;28;20054;-63
2022/05/29 11:10:44;;;;;;;5.75;1.17;;;;;;;14.70;38.84;101080.72;4994874;28;20046;-71
2022/05/29 11:13:49;;;;;;;6.78;1.48;;;;;;;14.55;40.12;101085.66;4992385;28;20065;-71
2022/05/29 11:16:30;;;;;;;6.38;1.70;;;;;;;14.85;39.96;101080.16;4995813;28;20046;-64
2022/05/29 11:19:35;;;;;;;7.18;1.70;;;;;;;15.18;39.65;101081.94;4990080;28;20051;-65
2022/05/29 11:22:24;;;;;;;6.40;1.50;;;;;;;14.72;41.40;101075.63;4957375;28;20070;-64
2022/05/29 11:24:52;;;;;;;6.07;1.27;;;;;;;15.17;41.69;101076.72;4985586;28;20049;-73
2022/05/29 11:27:41;;;;;;;6.28;1.52;;;;;;;14.79;42.25;101070.38;4995952;28;20061;-65
2022/05/29 11:30:12;;;;;;;8.32;1.75;;;;;;;14.30;43.57;101064.34;4978169;28;20050;-63
2022/05/29 11:32:55;;;;;;;10.27;2.30;;;;;;;14.48;43.27;101065.13;4995349;28;20057;-64
2022/05/29 11:35:31;;;;;;;9.00;1.70;;;;;;;14.26;43.72;101052.31;4994230;28;20046;-64
2022/05/29 11:37:58;;;;;;;5.03;1.40;;;;;;;14.42;42.77;101055.34;4956916;28;20517;-64
2022/05/29 11:40:30;;;;;;;13.23;3.25;;;;;;;14.47;42.72;101050.44;4956611;29;20054;-64
2022/05/29 11:43:05;;;;;;;10.60;1.67;;;;;;;14.52;41.93;101052.25;4957046;29;20446;-63
2022/05/29 11:52:06;;;;;;;5.50;1.55;;;;;;;14.72;40.45;101034.84;5007742;28;20493;-64
2022/05/29 11:54:38;;;;;;;5.63;1.50;;;;;;;14.20;41.39;101030.63;5010348;28;20046;-64
2022/05/29 11:57:13;;;;;;;4.38;1.23;;;;;;;13.96;41.51;101024.81;4995531;28;20055;-64
2022/05/29 11:59:48;;;;;;;6.65;1.48;;;;;;;14.41;41.04;101015.75;4995246;28;20074;-64
2022/05/29 12:02:54;;;;;;;8.50;1.63;;;;;;;15.00;40.05;101015.78;4989809;28;20054;-64
2022/05/29 12:05:32;;;;;;;19.75;1.70;;;;;;;14.55;39.09;101012.75;4938260;29;20133;-64
2022/05/29 12:08:09;;;;;;;4.88;1.33;;;;;;;14.52;39.41;101005.91;4974092;28;20557;-65
2022/05/29 12:11:03;;;;;;;10.10;1.60;;;;;;;14.48;39.50;101009.69;4992990;28;20046;-64
2022/05/29 12:13:43;;;;;;;5.45;1.30;;;;;;;14.45;39.63;101005.59;4995371;28;20437;-64
2022/05/29 12:16:12;;;;;;;7.50;2.10;;;;;;;14.70;39.36;101000.31;4995269;28;20494;-65
2022/05/29 12:18:46;;;;;;;4.30;1.20;;;;;;;14.96;38.64;101003.75;4986990;28;20062;-64
2022/05/29 12:21:15;;;;;;;9.27;1.80;;;;;;;15.30;37.91;100993.22;4956791;29;20055;-65
2022/05/29 12:23:47;;;;;;;5.45;1.02;;;;;;;15.56;37.02;101007.75;4977246;28;20058;-64
2022/05/29 12:26:25;;;;;;;5.88;1.23;;;;;;;15.19;37.68;100991.16;4993528;28;20061;-65
2022/05/29 12:29:00;;;;;;;5.32;1.50;;;;;;;15.52;37.43;100992.09;4994305;28;20498;-67
2022/05/29 12:31:41;;;;;;;8.85;1.52;;;;;;;15.79;37.20;100986.75;4995251;28;20054;-68